createdAt,value
2022-11-16T00:00:34.622Z,30.08
2022-11-16T00:01:34.602Z,30.19
2022-11-16T00:02:34.685Z,30.08
2022-11-16T00:03:34.589Z,30.08
2022-11-16T00:04:34.586Z,30.19
2022-11-16T00:05:34.553Z,30.08
2022-11-16T00:06:34.549Z,30.08
2022-11-16T00:07:34.596Z,30.13
2022-11-16T00:08:34.883Z,30.19
2022-11-16T00:09:34.501Z,30.13
2022-11-16T00:10:34.488Z,30.19
2022-11-16T00:11:34.477Z,30.13
2022-11-16T00:12:34.464Z,30.08
2022-11-16T00:13:34.474Z,30.13
2022-11-16T00:14:34.440Z,30.19
2022-11-16T00:15:34.423Z,30.13
2022-11-16T00:16:34.411Z,30.19
2022-11-16T00:17:34.397Z,30.19
2022-11-16T00:18:34.655Z,30.24
2022-11-16T00:19:34.376Z,30.08
2022-11-16T00:20:34.376Z,30.19
2022-11-16T00:21:34.351Z,30.08
2022-11-16T00:22:34.331Z,30.13
2022-11-16T00:23:34.324Z,30.13
2022-11-16T00:24:34.311Z,30.13
2022-11-16T00:25:34.295Z,30.13
2022-11-16T00:26:34.286Z,30.13
2022-11-16T00:27:34.270Z,30.24
2022-11-16T00:28:34.743Z,30.24
2022-11-16T00:29:34.271Z,30.13
2022-11-16T00:30:34.230Z,30.13
2022-11-16T00:31:34.221Z,30.13
2022-11-16T00:32:34.206Z,30.13
2022-11-16T00:33:34.191Z,30.19
2022-11-16T00:34:34.181Z,30.13
2022-11-16T00:35:34.167Z,30.13
2022-11-16T00:36:34.159Z,30.29
2022-11-16T00:37:34.140Z,30.13
2022-11-16T00:38:34.506Z,30.13
2022-11-16T00:39:34.118Z,30.13
2022-11-16T00:40:34.109Z,30.13
2022-11-16T00:41:34.094Z,30.24
2022-11-16T00:42:34.080Z,30.08
2022-11-16T00:43:34.069Z,30.19
2022-11-16T00:44:34.051Z,30.08
2022-11-16T00:45:34.066Z,31.10
2022-11-16T00:46:34.027Z,30.13
2022-11-16T00:47:34.018Z,30.19
2022-11-16T00:48:34.342Z,30.24
2022-11-16T00:49:33.989Z,30.13
2022-11-16T00:50:33.976Z,30.24
2022-11-16T00:51:33.964Z,30.19
2022-11-16T00:52:33.954Z,30.13
2022-11-16T00:53:33.938Z,30.19
2022-11-16T00:54:33.929Z,30.13
2022-11-16T00:55:33.912Z,30.19
2022-11-16T00:56:33.896Z,30.19
2022-11-16T00:57:33.897Z,30.13
2022-11-16T00:58:34.055Z,30.19
2022-11-16T00:59:33.862Z,30.08
2022-11-16T01:00:33.853Z,30.08
2022-11-16T01:01:33.949Z,30.13
2022-11-16T01:02:33.824Z,30.19
2022-11-16T01:03:33.809Z,30.13
2022-11-16T01:04:33.792Z,30.19
2022-11-16T01:05:33.785Z,31.10
2022-11-16T01:06:33.770Z,30.13
2022-11-16T01:07:33.852Z,30.13
2022-11-16T01:08:33.991Z,30.13
2022-11-16T01:09:33.737Z,31.16
2022-11-16T01:10:33.730Z,31.10
2022-11-16T01:11:33.712Z,31.21
2022-11-16T01:12:33.697Z,30.13
2022-11-16T01:13:33.685Z,30.13
2022-11-16T01:14:33.669Z,31.10
2022-11-16T01:15:33.657Z,30.13
2022-11-16T01:16:33.644Z,30.13
2022-11-16T01:17:33.657Z,30.08
2022-11-16T01:18:33.852Z,30.13
2022-11-16T01:19:33.604Z,30.02
2022-11-16T01:20:33.594Z,30.13
2022-11-16T01:21:33.579Z,30.40
2022-11-16T01:22:33.568Z,31.16
2022-11-16T01:23:33.553Z,31.27
2022-11-16T01:24:33.542Z,30.19
2022-11-16T01:25:33.529Z,31.21
2022-11-16T01:26:33.516Z,31.05
2022-11-16T01:27:33.518Z,30.24
2022-11-16T01:28:33.820Z,31.16
2022-11-16T01:29:33.474Z,31.10
2022-11-16T01:30:33.466Z,30.13
2022-11-16T01:31:33.453Z,30.13
2022-11-16T01:32:33.440Z,31.10
2022-11-16T01:33:33.451Z,30.08
2022-11-16T01:34:33.412Z,31.16
2022-11-16T01:35:33.402Z,31.10
2022-11-16T01:36:33.382Z,31.21
2022-11-16T01:37:33.375Z,30.24
2022-11-16T01:38:33.604Z,30.19
2022-11-16T01:39:33.354Z,30.13
2022-11-16T01:40:33.403Z,31.10
2022-11-16T01:41:33.325Z,31.16
2022-11-16T01:42:33.311Z,31.10
2022-11-16T01:43:33.303Z,30.08
2022-11-16T01:44:33.282Z,31.16
2022-11-16T01:45:33.273Z,31.16
2022-11-16T01:46:33.264Z,31.16
2022-11-16T01:47:33.247Z,31.10
2022-11-16T01:48:33.529Z,31.16
2022-11-16T01:49:33.276Z,31.10
2022-11-16T01:50:33.215Z,31.05
2022-11-16T01:51:33.204Z,31.16
2022-11-16T01:52:33.182Z,31.10
2022-11-16T01:53:33.174Z,31.16
2022-11-16T01:54:33.161Z,31.16
2022-11-16T01:55:33.147Z,31.16
2022-11-16T01:56:33.136Z,30.13
2022-11-16T01:57:33.123Z,31.21
2022-11-16T01:58:33.462Z,31.10
2022-11-16T01:59:33.092Z,31.16
2022-11-16T02:00:33.079Z,31.21
2022-11-16T02:01:33.098Z,31.10
2022-11-16T02:02:33.058Z,31.16
2022-11-16T02:03:33.041Z,31.16
2022-11-16T02:04:33.025Z,31.10
2022-11-16T02:05:33.037Z,31.00
2022-11-16T02:06:33.002Z,31.10
2022-11-16T02:07:33.050Z,31.21
2022-11-16T02:08:33.246Z,31.16
2022-11-16T02:09:33.092Z,31.10
2022-11-16T02:10:32.951Z,31.10
2022-11-16T02:11:32.938Z,31.27
2022-11-16T02:12:32.925Z,31.10
2022-11-16T02:13:32.912Z,31.16
2022-11-16T02:14:32.902Z,31.16
2022-11-16T02:15:32.889Z,31.10
2022-11-16T02:16:32.877Z,31.16
2022-11-16T02:17:32.869Z,31.21
2022-11-16T02:18:33.112Z,31.10
2022-11-16T02:19:32.835Z,31.00
2022-11-16T02:20:32.822Z,31.16
2022-11-16T02:21:32.833Z,31.16
2022-11-16T02:22:32.796Z,31.32
2022-11-16T02:23:32.782Z,31.10
2022-11-16T02:24:32.773Z,31.10
2022-11-16T02:25:32.763Z,31.10
2022-11-16T02:26:32.751Z,31.21
2022-11-16T02:27:32.732Z,31.16
2022-11-16T02:28:32.944Z,31.16
2022-11-16T02:29:32.708Z,31.16
2022-11-16T02:30:32.699Z,31.16
2022-11-16T02:31:32.687Z,31.21
2022-11-16T02:32:32.670Z,31.16
2022-11-16T02:33:32.656Z,31.10
2022-11-16T02:34:32.649Z,31.10
2022-11-16T02:35:32.629Z,31.10
2022-11-16T02:36:32.617Z,31.16
2022-11-16T02:37:32.633Z,31.21
2022-11-16T02:38:32.963Z,31.16
2022-11-16T02:39:32.597Z,31.16
2022-11-16T02:40:32.568Z,31.16
2022-11-16T02:41:32.556Z,31.10
2022-11-16T02:42:32.542Z,31.21
2022-11-16T02:43:32.532Z,31.16
2022-11-16T02:44:32.520Z,31.10
2022-11-16T02:45:32.500Z,31.16
2022-11-16T02:46:32.490Z,31.10
2022-11-16T02:47:32.478Z,31.16
2022-11-16T02:48:32.856Z,31.10
2022-11-16T02:49:32.447Z,31.10
2022-11-16T02:50:32.437Z,31.10
2022-11-16T02:51:32.424Z,31.16
2022-11-16T02:52:32.415Z,31.10
2022-11-16T02:53:32.423Z,31.16
2022-11-16T02:54:32.384Z,32.35
2022-11-16T02:55:32.370Z,31.16
2022-11-16T02:56:32.360Z,31.16
2022-11-16T02:57:32.349Z,31.16
2022-11-16T02:58:32.745Z,31.10
2022-11-16T02:59:32.324Z,31.10
2022-11-16T03:00:32.318Z,31.05
2022-11-16T03:01:32.351Z,31.21
2022-11-16T03:02:32.304Z,31.10
2022-11-16T03:03:32.275Z,31.10
2022-11-16T03:04:32.266Z,31.05
2022-11-16T03:05:32.385Z,31.10
2022-11-16T03:06:32.233Z,31.10
2022-11-16T03:07:32.262Z,31.16
2022-11-16T03:08:32.687Z,31.16
2022-11-16T03:09:32.219Z,31.10
2022-11-16T03:10:32.176Z,31.16
2022-11-16T03:11:32.165Z,31.16
2022-11-16T03:12:32.156Z,32.35
2022-11-16T03:13:32.140Z,32.29
2022-11-16T03:14:32.135Z,31.16
2022-11-16T03:15:32.115Z,32.35
2022-11-16T03:16:32.099Z,31.16
2022-11-16T03:17:32.086Z,31.16
2022-11-16T03:18:32.490Z,31.16
2022-11-16T03:19:32.066Z,31.16
2022-11-16T03:20:32.055Z,31.16
2022-11-16T03:21:32.037Z,31.16
2022-11-16T03:22:32.028Z,31.10
2022-11-16T03:23:32.013Z,32.35
2022-11-16T03:24:32.002Z,31.10
2022-11-16T03:25:32.009Z,31.10
2022-11-16T03:26:31.973Z,31.16
2022-11-16T03:27:31.966Z,31.16
2022-11-16T03:28:32.226Z,31.16
2022-11-16T03:29:31.935Z,31.16
2022-11-16T03:30:31.924Z,31.10
2022-11-16T03:31:31.912Z,31.21
2022-11-16T03:32:31.894Z,32.29
2022-11-16T03:33:31.884Z,31.10
2022-11-16T03:34:31.881Z,31.21
2022-11-16T03:35:31.859Z,31.05
2022-11-16T03:36:31.846Z,31.10
2022-11-16T03:37:31.834Z,31.16
2022-11-16T03:38:32.085Z,31.16
2022-11-16T03:39:31.813Z,31.10
2022-11-16T03:40:31.795Z,32.29
2022-11-16T03:41:31.806Z,31.27
2022-11-16T03:42:31.772Z,31.32
2022-11-16T03:43:31.761Z,32.13
2022-11-16T03:44:31.746Z,32.18
2022-11-16T03:45:31.732Z,32.13
2022-11-16T03:46:31.722Z,32.18
2022-11-16T03:47:31.712Z,32.29
2022-11-16T03:48:32.238Z,31.21
2022-11-16T03:49:31.689Z,32.29
2022-11-16T03:50:31.670Z,32.29
2022-11-16T03:51:31.651Z,32.29
2022-11-16T03:52:31.639Z,32.35
2022-11-16T03:53:31.632Z,32.40
2022-11-16T03:54:31.611Z,31.21
2022-11-16T03:55:31.607Z,31.10
2022-11-16T03:56:31.594Z,32.29
2022-11-16T03:57:31.599Z,31.21
2022-11-16T03:58:31.949Z,31.16
2022-11-16T03:59:31.553Z,31.16
2022-11-16T04:00:31.596Z,32.29
2022-11-16T04:01:31.533Z,32.35
2022-11-16T04:02:31.515Z,32.35
2022-11-16T04:03:31.502Z,32.24
2022-11-16T04:04:31.491Z,32.29
2022-11-16T04:05:31.479Z,32.29
2022-11-16T04:06:31.469Z,32.24
2022-11-16T04:07:31.503Z,31.16
2022-11-16T04:08:31.827Z,32.29
2022-11-16T04:09:31.434Z,32.29
2022-11-16T04:10:31.414Z,32.29
2022-11-16T04:11:31.398Z,32.29
2022-11-16T04:12:31.390Z,31.16
2022-11-16T04:13:31.408Z,31.16
2022-11-16T04:14:31.364Z,32.35
2022-11-16T04:15:31.351Z,31.16
2022-11-16T04:16:31.333Z,32.24
2022-11-16T04:17:31.324Z,31.10
2022-11-16T04:18:31.635Z,31.10
2022-11-16T04:19:31.299Z,32.18
2022-11-16T04:20:31.283Z,32.29
2022-11-16T04:21:31.278Z,31.10
2022-11-16T04:22:31.259Z,32.29
2022-11-16T04:23:31.246Z,32.35
2022-11-16T04:24:31.238Z,32.35
2022-11-16T04:25:31.220Z,31.10
2022-11-16T04:26:31.208Z,32.29
2022-11-16T04:27:31.198Z,32.29
2022-11-16T04:28:31.528Z,32.35
2022-11-16T04:29:31.193Z,31.10
2022-11-16T04:30:31.156Z,31.10
2022-11-16T04:31:31.148Z,32.40
2022-11-16T04:32:31.134Z,31.10
2022-11-16T04:33:31.119Z,32.35
2022-11-16T04:34:31.111Z,32.29
2022-11-16T04:35:31.089Z,31.10
2022-11-16T04:36:31.083Z,32.35
2022-11-16T04:37:31.067Z,32.35
2022-11-16T04:38:31.229Z,32.35
2022-11-16T04:39:31.039Z,31.21
2022-11-16T04:40:31.030Z,32.35
2022-11-16T04:41:31.011Z,32.35
2022-11-16T04:42:30.998Z,32.40
2022-11-16T04:43:30.994Z,32.29
2022-11-16T04:44:30.976Z,31.16
2022-11-16T04:45:30.988Z,32.35
2022-11-16T04:46:30.957Z,32.29
2022-11-16T04:47:30.940Z,32.29
2022-11-16T04:48:31.046Z,32.35
2022-11-16T04:49:30.916Z,32.29
2022-11-16T04:50:30.911Z,32.29
2022-11-16T04:51:30.893Z,32.29
2022-11-16T04:52:30.878Z,32.35
2022-11-16T04:53:30.860Z,31.16
2022-11-16T04:54:30.856Z,32.35
2022-11-16T04:55:30.843Z,32.29
2022-11-16T04:56:30.827Z,32.29
2022-11-16T04:57:30.816Z,32.29
2022-11-16T04:58:31.075Z,32.18
2022-11-16T04:59:30.783Z,31.21
2022-11-16T05:00:30.776Z,32.29
2022-11-16T05:01:30.817Z,32.24
2022-11-16T05:02:30.750Z,31.10
2022-11-16T05:03:30.746Z,31.10
2022-11-16T05:04:30.722Z,32.29
2022-11-16T05:05:30.710Z,31.16
2022-11-16T05:06:30.701Z,32.35
2022-11-16T05:07:30.711Z,32.29
2022-11-16T05:08:30.854Z,32.29
2022-11-16T05:09:30.662Z,32.35
2022-11-16T05:10:30.650Z,32.35
2022-11-16T05:11:30.631Z,32.29
2022-11-16T05:12:30.628Z,32.35
2022-11-16T05:13:30.609Z,32.24
2022-11-16T05:14:30.593Z,32.24
2022-11-16T05:15:30.581Z,32.29
2022-11-16T05:16:30.573Z,31.10
2022-11-16T05:17:30.586Z,32.29
2022-11-16T05:18:30.780Z,31.16
2022-11-16T05:19:30.529Z,31.16
2022-11-16T05:20:30.524Z,31.10
2022-11-16T05:21:30.505Z,31.16
2022-11-16T05:22:30.503Z,32.29
2022-11-16T05:23:30.481Z,31.16
2022-11-16T05:24:30.473Z,32.35
2022-11-16T05:25:35.376Z,32.29
2022-11-16T05:26:31.466Z,32.29
2022-11-16T05:27:30.435Z,32.24
2022-11-16T05:28:30.417Z,32.24
2022-11-16T05:29:30.404Z,32.35
2022-11-16T05:30:30.393Z,32.35
2022-11-16T05:31:30.386Z,32.24
2022-11-16T05:32:30.367Z,32.35
2022-11-16T05:33:30.373Z,31.05
2022-11-16T05:34:30.335Z,31.16
2022-11-16T05:35:30.325Z,32.35
2022-11-16T05:36:30.312Z,32.35
2022-11-16T05:37:30.298Z,32.29
2022-11-16T05:38:30.393Z,31.16
2022-11-16T05:39:30.277Z,31.10
2022-11-16T05:40:30.260Z,32.29
2022-11-16T05:41:30.253Z,32.29
2022-11-16T05:42:30.235Z,32.29
2022-11-16T05:43:30.239Z,32.24
2022-11-16T05:44:30.216Z,31.16
2022-11-16T05:45:30.201Z,31.10
2022-11-16T05:46:30.183Z,32.35
2022-11-16T05:47:30.177Z,31.16
2022-11-16T05:48:30.166Z,32.40
2022-11-16T05:49:30.173Z,32.18
2022-11-16T05:50:30.144Z,31.16
2022-11-16T05:51:30.129Z,32.35
2022-11-16T05:52:30.108Z,32.29
2022-11-16T05:53:30.094Z,32.29
2022-11-16T05:54:30.094Z,31.16
2022-11-16T05:55:30.084Z,32.35
2022-11-16T05:56:30.131Z,32.24
2022-11-16T05:57:30.043Z,32.29
2022-11-16T05:58:30.034Z,32.29
2022-11-16T05:59:30.028Z,32.29
2022-11-16T06:00:30.015Z,32.35
2022-11-16T06:01:30.002Z,32.24
2022-11-16T06:02:29.982Z,32.29
2022-11-16T06:03:30.058Z,32.40
2022-11-16T06:04:29.977Z,31.21
2022-11-16T06:05:29.949Z,32.24
2022-11-16T06:06:29.933Z,31.05
2022-11-16T06:07:29.941Z,32.29
2022-11-16T06:08:29.907Z,32.29
2022-11-16T06:09:29.889Z,32.29
2022-11-16T06:10:29.878Z,32.35
2022-11-16T06:11:34.409Z,32.40
2022-11-16T06:12:29.859Z,32.40
2022-11-16T06:13:29.842Z,32.35
2022-11-16T06:14:29.828Z,32.35
2022-11-16T06:15:29.815Z,32.29
2022-11-16T06:16:30.130Z,32.35
2022-11-16T06:17:29.796Z,32.35
2022-11-16T06:18:29.776Z,32.35
2022-11-16T06:19:32.318Z,32.24
2022-11-16T06:20:29.757Z,32.29
2022-11-16T06:21:29.738Z,31.16
2022-11-16T06:22:29.726Z,32.35
2022-11-16T06:23:29.716Z,32.35
2022-11-16T06:24:29.706Z,32.29
2022-11-16T06:25:29.686Z,32.35
2022-11-16T06:26:29.682Z,31.10
2022-11-16T06:27:29.660Z,32.24
2022-11-16T06:28:29.657Z,32.29
2022-11-16T06:29:29.637Z,32.40
2022-11-16T06:30:29.627Z,31.10
2022-11-16T06:31:29.615Z,32.40
2022-11-16T06:32:29.880Z,32.29
2022-11-16T06:33:33.375Z,32.35
2022-11-16T06:34:29.579Z,32.29
2022-11-16T06:35:29.562Z,32.35
2022-11-16T06:36:29.557Z,32.35
2022-11-16T06:37:29.537Z,32.24
2022-11-16T06:38:29.538Z,32.35
2022-11-16T06:39:29.510Z,32.29
2022-11-16T06:40:29.497Z,32.35
2022-11-16T06:41:29.487Z,31.16
2022-11-16T06:42:29.468Z,31.10
2022-11-16T06:43:29.457Z,32.29
2022-11-16T06:44:29.445Z,31.16
2022-11-16T06:45:29.436Z,32.29
2022-11-16T06:46:29.419Z,32.29
2022-11-16T06:47:29.412Z,31.10
2022-11-16T06:48:29.721Z,32.40
2022-11-16T06:49:29.384Z,31.10
2022-11-16T06:50:29.372Z,32.40
2022-11-16T06:51:29.355Z,32.35
2022-11-16T06:52:29.344Z,31.16
2022-11-16T06:53:29.700Z,31.16
2022-11-16T06:54:29.317Z,32.40
2022-11-16T06:55:29.309Z,32.35
2022-11-16T06:56:29.293Z,32.35
2022-11-16T06:57:29.287Z,31.16
2022-11-16T06:58:29.264Z,32.40
2022-11-16T06:59:29.256Z,31.10
2022-11-16T07:00:29.241Z,31.10
2022-11-16T07:01:29.347Z,31.16
2022-11-16T07:02:29.220Z,31.16
2022-11-16T07:03:29.207Z,31.05
2022-11-16T07:04:29.211Z,32.45
2022-11-16T07:05:29.179Z,32.29
2022-11-16T07:06:29.169Z,32.35
2022-11-16T07:07:29.254Z,32.35
2022-11-16T07:08:29.142Z,32.29
2022-11-16T07:09:29.131Z,32.35
2022-11-16T07:10:29.117Z,32.35
2022-11-16T07:11:29.101Z,32.35
2022-11-16T07:12:29.090Z,32.35
2022-11-16T07:13:29.089Z,32.35
2022-11-16T07:14:29.066Z,32.35
2022-11-16T07:15:29.050Z,32.35
2022-11-16T07:16:29.041Z,32.35
2022-11-16T07:17:29.025Z,32.40
2022-11-16T07:18:29.011Z,31.16
2022-11-16T07:19:29.007Z,32.35
2022-11-16T07:20:29.262Z,32.29
2022-11-16T07:21:28.974Z,31.16
2022-11-16T07:22:28.963Z,31.21
2022-11-16T07:23:28.956Z,32.29
2022-11-16T07:24:28.938Z,32.35
2022-11-16T07:25:28.924Z,32.40
2022-11-16T07:26:28.916Z,31.16
2022-11-16T07:27:28.899Z,31.16
2022-11-16T07:28:28.892Z,32.29
2022-11-16T07:29:28.872Z,32.40
2022-11-16T07:30:28.860Z,31.21
2022-11-16T07:31:28.856Z,31.16
2022-11-16T07:32:28.833Z,32.29
2022-11-16T07:33:28.824Z,32.29
2022-11-16T07:34:28.799Z,32.24
2022-11-16T07:35:28.805Z,32.35
2022-11-16T07:36:28.813Z,32.24
2022-11-16T07:37:28.769Z,31.10
2022-11-16T07:38:28.758Z,32.29
2022-11-16T07:39:28.746Z,32.29
2022-11-16T07:40:28.765Z,31.16
2022-11-16T07:41:28.722Z,31.16
2022-11-16T07:42:28.729Z,31.10
2022-11-16T07:43:28.689Z,31.16
2022-11-16T07:44:28.680Z,31.05
2022-11-16T07:45:28.668Z,31.10
2022-11-16T07:46:46.156Z,32.29
2022-11-16T07:47:29.681Z,32.29
2022-11-16T07:48:28.623Z,32.29
2022-11-16T07:49:28.616Z,31.16
2022-11-16T07:50:28.653Z,31.16
2022-11-16T07:51:28.592Z,31.10
2022-11-16T07:52:28.780Z,32.35
2022-11-16T07:53:28.559Z,31.10
2022-11-16T07:54:28.554Z,31.10
2022-11-16T07:55:28.543Z,31.10
2022-11-16T07:56:28.539Z,32.29
2022-11-16T07:57:28.517Z,32.29
2022-11-16T07:58:28.502Z,32.29
2022-11-16T07:59:28.516Z,32.29
2022-11-16T08:00:28.508Z,32.35
2022-11-16T08:01:28.523Z,31.16
2022-11-16T08:02:28.455Z,31.16
2022-11-16T08:03:28.440Z,32.24
2022-11-16T08:04:28.432Z,32.35
2022-11-16T08:05:28.415Z,31.16
2022-11-16T08:06:28.402Z,31.16
2022-11-16T08:07:28.449Z,32.40
2022-11-16T08:08:28.410Z,31.16
2022-11-16T08:09:28.351Z,31.16
2022-11-16T08:10:28.475Z,31.10
2022-11-16T08:11:28.332Z,31.10
2022-11-16T08:12:28.330Z,32.29
2022-11-16T08:13:28.312Z,32.35
2022-11-16T08:14:28.304Z,31.10
2022-11-16T08:15:28.284Z,31.16
2022-11-16T08:16:28.275Z,31.16
2022-11-16T08:17:28.264Z,32.29
2022-11-16T08:18:28.249Z,31.16
2022-11-16T08:19:28.240Z,32.24
2022-11-16T08:20:28.261Z,32.29
2022-11-16T08:21:28.209Z,32.29
2022-11-16T08:22:28.197Z,31.16
2022-11-16T08:23:28.190Z,31.10
2022-11-16T08:24:28.298Z,31.16
2022-11-16T08:25:28.164Z,32.35
2022-11-16T08:26:28.164Z,31.16
2022-11-16T08:27:28.120Z,31.16
2022-11-16T08:28:28.117Z,32.29
2022-11-16T08:29:28.218Z,31.10
2022-11-16T08:30:28.100Z,31.10
2022-11-16T08:31:28.081Z,31.10
2022-11-16T08:32:28.073Z,32.35
2022-11-16T08:33:28.064Z,32.24
2022-11-16T08:34:28.043Z,32.35
2022-11-16T08:35:28.058Z,32.29
2022-11-16T08:36:28.012Z,32.29
2022-11-16T08:37:28.002Z,31.21
2022-11-16T08:38:27.996Z,31.27
2022-11-16T08:39:27.980Z,32.35
2022-11-16T08:40:27.996Z,32.29
2022-11-16T08:41:27.949Z,31.16
2022-11-16T08:42:27.940Z,32.35
2022-11-16T08:43:27.929Z,31.10
2022-11-16T08:44:27.911Z,31.16
2022-11-16T08:45:27.928Z,31.27
2022-11-16T08:46:27.895Z,31.16
2022-11-16T08:47:27.877Z,31.16
2022-11-16T08:48:27.863Z,31.10
2022-11-16T08:49:27.855Z,32.35
2022-11-16T08:50:27.838Z,32.29
2022-11-16T08:51:27.830Z,32.29
2022-11-16T08:52:27.808Z,31.10
2022-11-16T08:53:27.797Z,31.16
2022-11-16T08:54:27.790Z,31.10
2022-11-16T08:55:27.778Z,32.29
2022-11-16T08:56:27.888Z,32.29
2022-11-16T08:57:27.741Z,31.16
2022-11-16T08:58:27.745Z,32.29
2022-11-16T08:59:27.731Z,31.16
2022-11-16T09:00:27.710Z,32.29
2022-11-16T09:01:27.934Z,32.40
2022-11-16T09:02:27.682Z,32.40
2022-11-16T09:03:27.677Z,32.29
2022-11-16T09:04:29.580Z,31.16
2022-11-16T09:05:27.648Z,31.21
2022-11-16T09:06:27.637Z,31.10
2022-11-16T09:07:27.728Z,31.10
2022-11-16T09:08:28.068Z,32.24
2022-11-16T09:09:27.592Z,31.21
2022-11-16T09:10:27.586Z,31.10
2022-11-16T09:11:27.572Z,31.16
2022-11-16T09:12:27.673Z,32.29
2022-11-16T09:13:27.548Z,32.40
2022-11-16T09:14:27.539Z,32.40
2022-11-16T09:15:27.517Z,31.16
2022-11-16T09:16:27.510Z,32.35
2022-11-16T09:17:27.491Z,32.35
2022-11-16T09:18:27.482Z,31.16
2022-11-16T09:19:27.468Z,31.16
2022-11-16T09:20:27.458Z,32.29
2022-11-16T09:21:27.456Z,32.35
2022-11-16T09:22:27.431Z,32.29
2022-11-16T09:23:27.417Z,31.10
2022-11-16T09:24:27.406Z,31.10
2022-11-16T09:25:27.391Z,32.29
2022-11-16T09:26:27.376Z,31.27
2022-11-16T09:27:27.365Z,31.10
2022-11-16T09:28:27.388Z,31.10
2022-11-16T09:29:27.346Z,32.24
2022-11-16T09:30:27.335Z,31.10
2022-11-16T09:31:27.363Z,32.35
2022-11-16T09:32:27.303Z,31.16
2022-11-16T09:33:27.285Z,32.35
2022-11-16T09:34:27.278Z,31.16
2022-11-16T09:35:27.253Z,32.29
2022-11-16T09:36:27.254Z,31.21
2022-11-16T09:37:27.246Z,32.29
2022-11-16T09:38:40.581Z,31.16
2022-11-16T09:39:32.030Z,32.29
2022-11-16T09:40:27.191Z,31.16
2022-11-16T09:41:27.197Z,31.21
2022-11-16T09:42:27.184Z,32.29
2022-11-16T09:43:27.166Z,32.29
2022-11-16T09:44:27.162Z,31.05
2022-11-16T09:45:27.141Z,31.21
2022-11-16T09:46:27.123Z,32.35
2022-11-16T09:47:27.111Z,31.16
2022-11-16T09:48:27.094Z,31.10
2022-11-16T09:49:27.089Z,31.21
2022-11-16T09:50:27.077Z,31.16
2022-11-16T09:51:27.059Z,31.16
2022-11-16T09:52:27.050Z,31.27
2022-11-16T09:53:27.038Z,32.29
2022-11-16T09:54:27.021Z,31.10
2022-11-16T09:55:27.011Z,32.35
2022-11-16T09:56:27.009Z,31.10
2022-11-16T09:57:26.988Z,31.16
2022-11-16T09:58:26.972Z,32.24
2022-11-16T09:59:26.955Z,32.29
2022-11-16T10:00:27.168Z,31.16
2022-11-16T10:01:27.057Z,31.16
2022-11-16T10:02:26.925Z,31.27
2022-11-16T10:03:26.908Z,31.43
2022-11-16T10:04:26.892Z,31.27
2022-11-16T10:05:26.885Z,32.35
2022-11-16T10:06:26.865Z,31.10
2022-11-16T10:07:26.940Z,31.10
2022-11-16T10:08:26.849Z,31.16
2022-11-16T10:09:26.837Z,31.16
2022-11-16T10:10:26.824Z,31.16
2022-11-16T10:11:26.813Z,31.10
2022-11-16T10:12:26.793Z,31.16
2022-11-16T10:13:26.779Z,31.10
2022-11-16T10:14:26.771Z,31.21
2022-11-16T10:15:26.756Z,31.27
2022-11-16T10:16:26.862Z,31.16
2022-11-16T10:17:26.733Z,32.29
2022-11-16T10:18:26.715Z,32.35
2022-11-16T10:19:26.701Z,32.29
2022-11-16T10:20:30.662Z,32.40
2022-11-16T10:21:26.676Z,31.10
2022-11-16T10:22:26.670Z,31.16
2022-11-16T10:23:26.652Z,31.21
2022-11-16T10:24:26.643Z,32.35
2022-11-16T10:25:26.630Z,31.10
2022-11-16T10:26:26.608Z,31.16
2022-11-16T10:27:26.598Z,31.16
2022-11-16T10:28:26.581Z,32.35
2022-11-16T10:29:26.572Z,31.16
2022-11-16T10:30:26.558Z,31.21
2022-11-16T10:31:26.549Z,31.10
2022-11-16T10:32:26.655Z,31.10
2022-11-16T10:33:26.518Z,31.10
2022-11-16T10:34:26.510Z,31.16
2022-11-16T10:35:26.492Z,31.16
2022-11-16T10:36:26.484Z,31.16
2022-11-16T10:37:26.474Z,32.29
2022-11-16T10:38:26.457Z,31.16
2022-11-16T10:39:26.445Z,32.29
2022-11-16T10:40:26.427Z,31.16
2022-11-16T10:41:26.423Z,31.10
2022-11-16T10:42:26.404Z,31.21
2022-11-16T10:43:26.391Z,31.16
2022-11-16T10:44:26.382Z,31.16
2022-11-16T10:45:26.371Z,31.16
2022-11-16T10:46:26.351Z,31.21
2022-11-16T10:47:30.878Z,31.10
2022-11-16T10:48:27.568Z,31.16
2022-11-16T10:49:26.320Z,31.16
2022-11-16T10:50:26.303Z,31.16
2022-11-16T10:51:26.285Z,31.10
2022-11-16T10:52:26.284Z,31.16
2022-11-16T10:53:26.275Z,31.16
2022-11-16T10:54:26.251Z,31.16
2022-11-16T10:55:26.242Z,32.29
2022-11-16T10:56:26.231Z,31.16
2022-11-16T10:57:26.216Z,31.10
2022-11-16T10:58:26.202Z,31.10
2022-11-16T10:59:26.195Z,31.16
2022-11-16T11:00:26.181Z,31.10
2022-11-16T11:01:26.171Z,31.16
2022-11-16T11:02:26.142Z,31.10
2022-11-16T11:03:26.136Z,31.16
2022-11-16T11:04:26.145Z,31.21
2022-11-16T11:05:26.120Z,31.16
2022-11-16T11:06:26.090Z,31.21
2022-11-16T11:07:26.264Z,31.16
2022-11-16T11:08:26.075Z,31.10
2022-11-16T11:09:26.057Z,31.16
2022-11-16T11:10:26.674Z,31.10
2022-11-16T11:11:26.035Z,31.10
2022-11-16T11:12:26.016Z,31.16
2022-11-16T11:13:26.007Z,31.16
2022-11-16T11:14:25.991Z,31.21
2022-11-16T11:15:26.691Z,31.16
2022-11-16T11:16:25.976Z,31.16
2022-11-16T11:17:26.023Z,31.10
2022-11-16T11:18:25.941Z,31.16
2022-11-16T11:19:25.925Z,31.10
2022-11-16T11:20:26.036Z,32.35
2022-11-16T11:21:25.911Z,31.16
2022-11-16T11:22:25.890Z,31.10
2022-11-16T11:23:25.870Z,31.16
2022-11-16T11:25:25.847Z,31.16
2022-11-16T11:26:25.835Z,31.16
2022-11-16T11:27:25.848Z,31.16
2022-11-16T11:28:25.811Z,31.21
2022-11-16T11:29:25.801Z,31.10
2022-11-16T11:30:25.787Z,31.21
2022-11-16T11:31:25.835Z,31.10
2022-11-16T11:32:25.763Z,31.16
2022-11-16T11:33:25.768Z,31.21
2022-11-16T11:34:25.727Z,31.16
2022-11-16T11:35:25.718Z,31.16
2022-11-16T11:36:25.830Z,31.16
2022-11-16T11:37:25.783Z,31.10
2022-11-16T11:38:25.683Z,31.21
2022-11-16T11:39:25.708Z,31.10
2022-11-16T11:40:25.663Z,31.10
2022-11-16T11:41:25.646Z,31.21
2022-11-16T11:42:25.628Z,31.21
2022-11-16T11:43:25.626Z,31.16
2022-11-16T11:44:25.604Z,31.21
2022-11-16T11:45:25.597Z,31.10
2022-11-16T11:46:35.872Z,31.16
2022-11-16T11:47:56.274Z,31.16
2022-11-16T11:48:26.579Z,31.16
2022-11-16T11:49:29.139Z,31.16
2022-11-16T11:50:26.550Z,31.10
2022-11-16T11:51:25.518Z,31.16
2022-11-16T11:52:25.614Z,31.16
2022-11-16T11:53:25.496Z,31.05
2022-11-16T11:54:25.478Z,31.21
2022-11-16T11:55:25.465Z,31.10
2022-11-16T11:56:25.449Z,31.16
2022-11-16T11:57:25.440Z,31.10
2022-11-16T11:58:25.433Z,31.21
2022-11-16T11:59:25.416Z,31.10
2022-11-16T12:00:25.402Z,31.21
2022-11-16T12:01:25.842Z,31.16
2022-11-16T12:02:25.376Z,31.16
2022-11-16T12:03:25.459Z,31.16
2022-11-16T12:04:25.350Z,31.16
2022-11-16T12:05:25.331Z,31.10
2022-11-16T12:06:25.334Z,31.16
2022-11-16T12:07:25.440Z,31.10
2022-11-16T12:08:25.425Z,31.16
2022-11-16T12:09:25.285Z,31.16
2022-11-16T12:10:25.273Z,31.16
2022-11-16T12:11:25.257Z,31.16
2022-11-16T12:12:25.242Z,31.21
2022-11-16T12:13:25.235Z,31.10
2022-11-16T12:14:25.220Z,31.16
2022-11-16T12:15:25.203Z,31.21
2022-11-16T12:16:25.196Z,31.16
2022-11-16T12:17:25.203Z,31.16
2022-11-16T12:18:25.166Z,31.16
2022-11-16T12:19:25.155Z,31.27
2022-11-16T12:20:25.157Z,31.16
2022-11-16T12:21:25.127Z,31.10
2022-11-16T12:22:25.117Z,31.21
2022-11-16T12:23:25.113Z,31.10
2022-11-16T12:24:25.116Z,31.16
2022-11-16T12:25:25.108Z,31.16
2022-11-16T12:26:25.075Z,32.45
2022-11-16T12:27:25.067Z,31.21
2022-11-16T12:28:25.042Z,31.16
2022-11-16T12:29:25.030Z,31.10
2022-11-16T12:30:25.017Z,31.10
2022-11-16T12:31:25.002Z,31.21
2022-11-16T12:32:24.998Z,31.10
2022-11-16T12:33:24.976Z,31.16
2022-11-16T12:34:24.963Z,32.35
2022-11-16T12:35:24.949Z,31.16
2022-11-16T12:36:24.938Z,31.10
2022-11-16T12:37:24.926Z,31.10
2022-11-16T12:38:26.404Z,31.10
2022-11-16T12:39:24.907Z,31.16
2022-11-16T12:40:24.906Z,31.21
2022-11-16T12:41:24.874Z,31.10
2022-11-16T12:42:24.860Z,31.10
2022-11-16T12:43:24.853Z,31.21
2022-11-16T12:44:24.837Z,31.10
2022-11-16T12:45:30.565Z,31.16
2022-11-16T12:46:25.843Z,31.16
2022-11-16T12:47:24.795Z,31.10
2022-11-16T12:48:24.783Z,31.16
2022-11-16T12:49:24.775Z,31.21
2022-11-16T12:50:24.763Z,31.10
2022-11-16T12:51:30.385Z,31.10
2022-11-16T12:52:25.764Z,31.10
2022-11-16T12:53:24.729Z,31.16